sensor_id;sensor_type;location;lat;lon;timestamp;P1;durP1;ratioP1;P2;durP2;ratioP2
78368;SDS011;71113;43.092;-89.268;2023-12-20T00:01:40;8.85;;;3.80;;
78368;SDS011;71113;43.092;-89.268;2023-12-20T00:04:06;7.88;;;3.83;;
78368;SDS011;71113;43.092;-89.268;2023-12-20T00:06:32;6.55;;;3.15;;
78368;SDS011;71113;43.092;-89.268;2023-12-20T00:08:58;6.82;;;3.50;;
78368;SDS011;71113;43.092;-89.268;2023-12-20T00:11:24;7.18;;;3.47;;
78368;SDS011;71113;43.092;-89.268;2023-12-20T00:13:50;7.72;;;3.40;;
78368;SDS011;71113;43.092;-89.268;2023-12-20T00:16:16;8.80;;;3.63;;
78368;SDS011;71113;43.092;-89.268;2023-12-20T00:18:42;9.95;;;3.60;;
78368;SDS011;71113;43.092;-89.268;2023-12-20T00:21:07;7.40;;;2.92;;
78368;SDS011;71113;43.092;-89.268;2023-12-20T00:23:33;5.85;;;2.92;;
78368;SDS011;71113;43.092;-89.268;2023-12-20T00:25:59;5.50;;;2.75;;
78368;SDS011;71113;43.092;-89.268;2023-12-20T00:28:25;5.93;;;2.95;;
78368;SDS011;71113;43.092;-89.268;2023-12-20T00:30:51;5.35;;;2.67;;
78368;SDS011;71113;43.092;-89.268;2023-12-20T00:33:17;6.07;;;2.75;;
78368;SDS011;71113;43.092;-89.268;2023-12-20T00:35:43;6.50;;;2.70;;
78368;SDS011;71113;43.092;-89.268;2023-12-20T00:38:08;119.90;;;64.88;;
78368;SDS011;71113;43.092;-89.268;2023-12-20T00:40:35;113.35;;;50.67;;
78368;SDS011;71113;43.092;-89.268;2023-12-20T00:43:01;116.10;;;51.42;;
78368;SDS011;71113;43.092;-89.268;2023-12-20T00:45:26;174.85;;;66.30;;
78368;SDS011;71113;43.092;-89.268;2023-12-20T00:47:52;169.20;;;61.60;;
78368;SDS011;71113;43.092;-89.268;2023-12-20T00:50:18;191.57;;;68.97;;
78368;SDS011;71113;43.092;-89.268;2023-12-20T00:52:44;164.10;;;61.80;;
78368;SDS011;71113;43.092;-89.268;2023-12-20T00:55:11;159.35;;;62.60;;
78368;SDS011;71113;43.092;-89.268;2023-12-20T00:57:37;137.50;;;52.17;;
78368;SDS011;71113;43.092;-89.268;2023-12-20T01:00:03;117.60;;;45.95;;
78368;SDS011;71113;43.092;-89.268;2023-12-20T01:02:29;104.53;;;40.67;;
78368;SDS011;71113;43.092;-89.268;2023-12-20T01:04:55;102.65;;;37.50;;
78368;SDS011;71113;43.092;-89.268;2023-12-20T01:07:21;93.93;;;37.05;;
78368;SDS011;71113;43.092;-89.268;2023-12-20T01:09:47;163.23;;;72.15;;
78368;SDS011;71113;43.092;-89.268;2023-12-20T01:12:12;188.18;;;77.85;;
78368;SDS011;71113;43.092;-89.268;2023-12-20T01:14:38;214.32;;;82.93;;
78368;SDS011;71113;43.092;-89.268;2023-12-20T01:17:04;158.00;;;63.10;;
78368;SDS011;71113;43.092;-89.268;2023-12-20T01:19:30;166.52;;;62.35;;
78368;SDS011;71113;43.092;-89.268;2023-12-20T01:21:56;164.52;;;65.40;;
78368;SDS011;71113;43.092;-89.268;2023-12-20T01:24:22;156.73;;;62.33;;
78368;SDS011;71113;43.092;-89.268;2023-12-20T01:26:48;154.27;;;57.53;;
78368;SDS011;71113;43.092;-89.268;2023-12-20T01:29:14;132.30;;;48.05;;
78368;SDS011;71113;43.092;-89.268;2023-12-20T01:31:41;126.65;;;45.35;;
78368;SDS011;71113;43.092;-89.268;2023-12-20T01:34:07;120.28;;;45.75;;
78368;SDS011;71113;43.092;-89.268;2023-12-20T01:36:33;114.32;;;41.00;;
78368;SDS011;71113;43.092;-89.268;2023-12-20T01:38:58;99.53;;;34.88;;
78368;SDS011;71113;43.092;-89.268;2023-12-20T01:41:24;85.72;;;30.88;;
78368;SDS011;71113;43.092;-89.268;2023-12-20T01:43:50;162.88;;;43.20;;
78368;SDS011;71113;43.092;-89.268;2023-12-20T01:46:18;124.82;;;37.40;;
78368;SDS011;71113;43.092;-89.268;2023-12-20T01:48:45;122.57;;;37.05;;
78368;SDS011;71113;43.092;-89.268;2023-12-20T01:51:12;122.95;;;34.30;;
78368;SDS011;71113;43.092;-89.268;2023-12-20T01:53:38;125.07;;;37.10;;
78368;SDS011;71113;43.092;-89.268;2023-12-20T01:56:05;100.32;;;31.80;;
78368;SDS011;71113;43.092;-89.268;2023-12-20T01:58:31;95.93;;;30.58;;
78368;SDS011;71113;43.092;-89.268;2023-12-20T02:00:58;81.80;;;24.90;;
78368;SDS011;71113;43.092;-89.268;2023-12-20T02:03:23;83.78;;;27.17;;
78368;SDS011;71113;43.092;-89.268;2023-12-20T02:05:50;87.25;;;27.00;;
78368;SDS011;71113;43.092;-89.268;2023-12-20T02:08:16;83.18;;;24.80;;
78368;SDS011;71113;43.092;-89.268;2023-12-20T02:10:42;82.07;;;25.73;;
78368;SDS011;71113;43.092;-89.268;2023-12-20T02:13:08;79.28;;;24.40;;
78368;SDS011;71113;43.092;-89.268;2023-12-20T02:15:34;72.65;;;22.50;;
78368;SDS011;71113;43.092;-89.268;2023-12-20T02:18:02;72.15;;;21.77;;
78368;SDS011;71113;43.092;-89.268;2023-12-20T02:20:28;65.28;;;21.13;;
78368;SDS011;71113;43.092;-89.268;2023-12-20T02:22:54;75.07;;;21.83;;
78368;SDS011;71113;43.092;-89.268;2023-12-20T02:25:20;66.68;;;19.95;;
78368;SDS011;71113;43.092;-89.268;2023-12-20T02:27:47;60.22;;;20.00;;
78368;SDS011;71113;43.092;-89.268;2023-12-20T02:30:14;62.08;;;20.13;;
78368;SDS011;71113;43.092;-89.268;2023-12-20T02:32:40;62.00;;;20.58;;
78368;SDS011;71113;43.092;-89.268;2023-12-20T02:35:06;57.85;;;18.92;;
78368;SDS011;71113;43.092;-89.268;2023-12-20T02:37:32;56.60;;;17.95;;
78368;SDS011;71113;43.092;-89.268;2023-12-20T02:39:59;51.00;;;15.73;;
78368;SDS011;71113;43.092;-89.268;2023-12-20T02:42:25;57.22;;;16.70;;
78368;SDS011;71113;43.092;-89.268;2023-12-20T02:44:51;49.17;;;15.25;;
78368;SDS011;71113;43.092;-89.268;2023-12-20T02:47:17;49.47;;;16.90;;
78368;SDS011;71113;43.092;-89.268;2023-12-20T02:49:43;44.45;;;14.30;;
78368;SDS011;71113;43.092;-89.268;2023-12-20T02:52:09;44.80;;;13.73;;
78368;SDS011;71113;43.092;-89.268;2023-12-20T02:54:35;45.17;;;14.15;;
78368;SDS011;71113;43.092;-89.268;2023-12-20T02:57:01;37.35;;;12.25;;
78368;SDS011;71113;43.092;-89.268;2023-12-20T02:59:27;37.08;;;12.10;;
78368;SDS011;71113;43.092;-89.268;2023-12-20T03:01:53;30.98;;;10.13;;
78368;SDS011;71113;43.092;-89.268;2023-12-20T03:04:19;29.25;;;10.18;;
78368;SDS011;71113;43.092;-89.268;2023-12-20T03:06:45;35.22;;;10.70;;
78368;SDS011;71113;43.092;-89.268;2023-12-20T03:09:11;28.50;;;9.38;;
78368;SDS011;71113;43.092;-89.268;2023-12-20T03:11:37;31.45;;;10.55;;
78368;SDS011;71113;43.092;-89.268;2023-12-20T03:14:03;28.33;;;9.50;;
78368;SDS011;71113;43.092;-89.268;2023-12-20T03:16:29;29.60;;;9.82;;
78368;SDS011;71113;43.092;-89.268;2023-12-20T03:18:56;23.27;;;7.78;;
78368;SDS011;71113;43.092;-89.268;2023-12-20T03:21:22;22.88;;;7.13;;
78368;SDS011;71113;43.092;-89.268;2023-12-20T03:23:48;21.88;;;8.07;;
78368;SDS011;71113;43.092;-89.268;2023-12-20T03:26:14;24.02;;;9.25;;
78368;SDS011;71113;43.092;-89.268;2023-12-20T03:28:40;20.80;;;7.03;;
78368;SDS011;71113;43.092;-89.268;2023-12-20T03:31:06;20.40;;;7.07;;
78368;SDS011;71113;43.092;-89.268;2023-12-20T03:33:32;21.95;;;6.55;;
78368;SDS011;71113;43.092;-89.268;2023-12-20T03:35:58;16.67;;;6.20;;
78368;SDS011;71113;43.092;-89.268;2023-12-20T03:38:24;19.33;;;7.53;;
78368;SDS011;71113;43.092;-89.268;2023-12-20T03:40:50;19.60;;;6.70;;
78368;SDS011;71113;43.092;-89.268;2023-12-20T03:43:16;17.13;;;6.03;;
78368;SDS011;71113;43.092;-89.268;2023-12-20T03:45:42;14.52;;;5.18;;
78368;SDS011;71113;43.092;-89.268;2023-12-20T03:48:08;13.88;;;5.82;;
78368;SDS011;71113;43.092;-89.268;2023-12-20T03:50:34;13.68;;;4.88;;
78368;SDS011;71113;43.092;-89.268;2023-12-20T03:53:01;16.02;;;5.72;;
78368;SDS011;71113;43.092;-89.268;2023-12-20T03:55:27;13.15;;;4.45;;
78368;SDS011;71113;43.092;-89.268;2023-12-20T03:57:53;13.70;;;4.65;;
78368;SDS011;71113;43.092;-89.268;2023-12-20T04:00:19;14.48;;;5.35;;
78368;SDS011;71113;43.092;-89.268;2023-12-20T04:02:45;12.25;;;4.43;;
78368;SDS011;71113;43.092;-89.268;2023-12-20T04:05:11;11.40;;;4.05;;
78368;SDS011;71113;43.092;-89.268;2023-12-20T04:07:37;12.00;;;4.50;;
78368;SDS011;71113;43.092;-89.268;2023-12-20T04:10:04;9.68;;;3.85;;
78368;SDS011;71113;43.092;-89.268;2023-12-20T04:12:31;9.65;;;4.03;;
78368;SDS011;71113;43.092;-89.268;2023-12-20T04:14:57;10.88;;;3.95;;
78368;SDS011;71113;43.092;-89.268;2023-12-20T04:17:23;11.25;;;3.80;;
78368;SDS011;71113;43.092;-89.268;2023-12-20T04:19:49;8.88;;;3.60;;
78368;SDS011;71113;43.092;-89.268;2023-12-20T04:22:19;9.20;;;3.67;;
78368;SDS011;71113;43.092;-89.268;2023-12-20T04:24:45;9.77;;;3.28;;
78368;SDS011;71113;43.092;-89.268;2023-12-20T04:27:11;10.20;;;3.25;;
78368;SDS011;71113;43.092;-89.268;2023-12-20T04:29:37;8.88;;;3.53;;
78368;SDS011;71113;43.092;-89.268;2023-12-20T04:32:04;8.55;;;3.17;;
78368;SDS011;71113;43.092;-89.268;2023-12-20T04:34:30;7.20;;;2.58;;
78368;SDS011;71113;43.092;-89.268;2023-12-20T04:36:56;6.75;;;2.78;;
78368;SDS011;71113;43.092;-89.268;2023-12-20T04:39:22;9.23;;;3.20;;
78368;SDS011;71113;43.092;-89.268;2023-12-20T04:41:48;9.90;;;3.13;;
78368;SDS011;71113;43.092;-89.268;2023-12-20T04:44:15;6.22;;;2.67;;
78368;SDS011;71113;43.092;-89.268;2023-12-20T04:46:41;7.88;;;3.03;;
78368;SDS011;71113;43.092;-89.268;2023-12-20T04:49:07;7.25;;;2.97;;
78368;SDS011;71113;43.092;-89.268;2023-12-20T04:51:33;8.23;;;3.22;;
78368;SDS011;71113;43.092;-89.268;2023-12-20T04:53:59;7.53;;;2.92;;
78368;SDS011;71113;43.092;-89.268;2023-12-20T04:56:26;7.05;;;2.90;;
78368;SDS011;71113;43.092;-89.268;2023-12-20T04:58:52;6.20;;;2.58;;
78368;SDS011;71113;43.092;-89.268;2023-12-20T05:01:18;5.18;;;2.25;;
78368;SDS011;71113;43.092;-89.268;2023-12-20T05:03:44;7.75;;;2.90;;
78368;SDS011;71113;43.092;-89.268;2023-12-20T05:06:10;6.18;;;2.13;;
78368;SDS011;71113;43.092;-89.268;2023-12-20T05:08:36;4.82;;;1.98;;
78368;SDS011;71113;43.092;-89.268;2023-12-20T05:11:02;5.97;;;2.05;;
78368;SDS011;71113;43.092;-89.268;2023-12-20T05:13:28;6.50;;;2.30;;
78368;SDS011;71113;43.092;-89.268;2023-12-20T05:15:54;5.53;;;2.20;;
78368;SDS011;71113;43.092;-89.268;2023-12-20T05:18:20;5.15;;;2.10;;
78368;SDS011;71113;43.092;-89.268;2023-12-20T05:20:47;6.57;;;2.17;;
78368;SDS011;71113;43.092;-89.268;2023-12-20T05:23:13;5.35;;;2.65;;
78368;SDS011;71113;43.092;-89.268;2023-12-20T05:25:39;4.22;;;1.90;;
78368;SDS011;71113;43.092;-89.268;2023-12-20T05:28:05;4.90;;;2.08;;
78368;SDS011;71113;43.092;-89.268;2023-12-20T05:30:31;4.63;;;2.05;;
78368;SDS011;71113;43.092;-89.268;2023-12-20T05:32:57;6.72;;;2.30;;
78368;SDS011;71113;43.092;-89.268;2023-12-20T05:35:23;5.50;;;2.13;;
78368;SDS011;71113;43.092;-89.268;2023-12-20T05:37:49;4.68;;;2.05;;
78368;SDS011;71113;43.092;-89.268;2023-12-20T05:40:15;5.05;;;1.90;;
78368;SDS011;71113;43.092;-89.268;2023-12-20T05:42:41;5.18;;;2.20;;
78368;SDS011;71113;43.092;-89.268;2023-12-20T05:45:07;3.28;;;1.88;;
78368;SDS011;71113;43.092;-89.268;2023-12-20T05:47:33;2.70;;;1.60;;
78368;SDS011;71113;43.092;-89.268;2023-12-20T05:49:59;3.88;;;1.70;;
78368;SDS011;71113;43.092;-89.268;2023-12-20T05:52:24;3.95;;;1.98;;
78368;SDS011;71113;43.092;-89.268;2023-12-20T05:54:50;4.70;;;1.80;;
78368;SDS011;71113;43.092;-89.268;2023-12-20T05:57:17;3.95;;;1.83;;
78368;SDS011;71113;43.092;-89.268;2023-12-20T05:59:43;4.75;;;1.90;;
78368;SDS011;71113;43.092;-89.268;2023-12-20T06:02:09;4.63;;;1.80;;
78368;SDS011;71113;43.092;-89.268;2023-12-20T06:04:34;3.45;;;1.77;;
78368;SDS011;71113;43.092;-89.268;2023-12-20T06:07:00;3.63;;;1.60;;
78368;SDS011;71113;43.092;-89.268;2023-12-20T06:09:26;4.43;;;1.63;;
78368;SDS011;71113;43.092;-89.268;2023-12-20T06:11:52;3.83;;;1.77;;
78368;SDS011;71113;43.092;-89.268;2023-12-20T06:14:18;3.53;;;1.90;;
78368;SDS011;71113;43.092;-89.268;2023-12-20T06:16:45;3.53;;;1.63;;
78368;SDS011;71113;43.092;-89.268;2023-12-20T06:19:11;3.17;;;1.38;;
78368;SDS011;71113;43.092;-89.268;2023-12-20T06:21:37;3.00;;;1.50;;
78368;SDS011;71113;43.092;-89.268;2023-12-20T06:24:03;3.15;;;1.30;;
78368;SDS011;71113;43.092;-89.268;2023-12-20T06:26:29;2.95;;;1.40;;
78368;SDS011;71113;43.092;-89.268;2023-12-20T06:28:55;2.65;;;1.35;;
78368;SDS011;71113;43.092;-89.268;2023-12-20T06:31:21;3.60;;;1.60;;
78368;SDS011;71113;43.092;-89.268;2023-12-20T06:33:47;3.25;;;1.30;;
78368;SDS011;71113;43.092;-89.268;2023-12-20T06:36:14;3.40;;;1.38;;
78368;SDS011;71113;43.092;-89.268;2023-12-20T06:38:40;3.50;;;1.70;;
78368;SDS011;71113;43.092;-89.268;2023-12-20T06:41:07;3.00;;;1.17;;
78368;SDS011;71113;43.092;-89.268;2023-12-20T06:43:33;2.88;;;1.40;;
78368;SDS011;71113;43.092;-89.268;2023-12-20T06:46:02;3.22;;;1.50;;
78368;SDS011;71113;43.092;-89.268;2023-12-20T06:48:28;3.03;;;1.40;;
78368;SDS011;71113;43.092;-89.268;2023-12-20T06:50:53;3.45;;;1.33;;
78368;SDS011;71113;43.092;-89.268;2023-12-20T06:53:19;2.67;;;1.45;;
78368;SDS011;71113;43.092;-89.268;2023-12-20T06:55:45;2.97;;;1.48;;
78368;SDS011;71113;43.092;-89.268;2023-12-20T06:58:11;2.55;;;1.42;;
78368;SDS011;71113;43.092;-89.268;2023-12-20T07:00:37;2.50;;;1.15;;
78368;SDS011;71113;43.092;-89.268;2023-12-20T07:03:03;2.90;;;1.30;;
78368;SDS011;71113;43.092;-89.268;2023-12-20T07:05:29;2.88;;;1.30;;
78368;SDS011;71113;43.092;-89.268;2023-12-20T07:07:55;2.50;;;1.30;;
78368;SDS011;71113;43.092;-89.268;2023-12-20T07:10:20;2.40;;;1.20;;
78368;SDS011;71113;43.092;-89.268;2023-12-20T07:12:46;2.65;;;1.30;;
78368;SDS011;71113;43.092;-89.268;2023-12-20T07:15:14;2.65;;;1.30;;
78368;SDS011;71113;43.092;-89.268;2023-12-20T07:17:39;2.55;;;1.45;;
78368;SDS011;71113;43.092;-89.268;2023-12-20T07:20:05;2.67;;;1.25;;
78368;SDS011;71113;43.092;-89.268;2023-12-20T07:22:52;2.42;;;1.20;;
78368;SDS011;71113;43.092;-89.268;2023-12-20T07:25:17;2.33;;;1.00;;
78368;SDS011;71113;43.092;-89.268;2023-12-20T07:27:43;1.98;;;1.23;;
78368;SDS011;71113;43.092;-89.268;2023-12-20T07:30:09;2.80;;;1.35;;
78368;SDS011;71113;43.092;-89.268;2023-12-20T07:32:36;2.47;;;1.10;;
78368;SDS011;71113;43.092;-89.268;2023-12-20T07:35:01;2.65;;;1.30;;
78368;SDS011;71113;43.092;-89.268;2023-12-20T07:37:28;2.10;;;1.02;;
78368;SDS011;71113;43.092;-89.268;2023-12-20T07:39:54;3.00;;;1.13;;
78368;SDS011;71113;43.092;-89.268;2023-12-20T07:42:19;2.35;;;1.25;;
78368;SDS011;71113;43.092;-89.268;2023-12-20T07:44:47;1.73;;;1.00;;
78368;SDS011;71113;43.092;-89.268;2023-12-20T07:47:13;2.50;;;1.30;;
78368;SDS011;71113;43.092;-89.268;2023-12-20T07:49:42;2.30;;;1.10;;
78368;SDS011;71113;43.092;-89.268;2023-12-20T07:52:08;2.08;;;1.10;;
78368;SDS011;71113;43.092;-89.268;2023-12-20T07:54:34;2.53;;;1.30;;
78368;SDS011;71113;43.092;-89.268;2023-12-20T07:57:00;1.65;;;0.98;;
78368;SDS011;71113;43.092;-89.268;2023-12-20T07:59:26;2.47;;;1.08;;
78368;SDS011;71113;43.092;-89.268;2023-12-20T08:01:51;2.10;;;1.20;;
78368;SDS011;71113;43.092;-89.268;2023-12-20T08:04:17;1.88;;;1.05;;
78368;SDS011;71113;43.092;-89.268;2023-12-20T08:06:43;1.35;;;0.93;;
78368;SDS011;71113;43.092;-89.268;2023-12-20T08:09:09;2.13;;;1.20;;
78368;SDS011;71113;43.092;-89.268;2023-12-20T08:11:35;1.60;;;1.05;;
78368;SDS011;71113;43.092;-89.268;2023-12-20T08:14:01;1.70;;;1.08;;
78368;SDS011;71113;43.092;-89.268;2023-12-20T08:16:27;2.13;;;1.15;;
78368;SDS011;71113;43.092;-89.268;2023-12-20T08:18:53;1.33;;;0.85;;
78368;SDS011;71113;43.092;-89.268;2023-12-20T08:21:19;1.90;;;1.00;;
78368;SDS011;71113;43.092;-89.268;2023-12-20T08:23:47;1.30;;;0.93;;
78368;SDS011;71113;43.092;-89.268;2023-12-20T08:26:13;1.58;;;1.00;;
78368;SDS011;71113;43.092;-89.268;2023-12-20T08:28:39;1.85;;;1.00;;
78368;SDS011;71113;43.092;-89.268;2023-12-20T08:31:04;2.15;;;1.10;;
78368;SDS011;71113;43.092;-89.268;2023-12-20T08:33:30;2.25;;;1.10;;
78368;SDS011;71113;43.092;-89.268;2023-12-20T08:35:56;2.10;;;1.00;;
78368;SDS011;71113;43.092;-89.268;2023-12-20T08:38:23;1.85;;;1.00;;
78368;SDS011;71113;43.092;-89.268;2023-12-20T08:40:48;1.40;;;1.00;;
78368;SDS011;71113;43.092;-89.268;2023-12-20T08:43:14;3.75;;;1.10;;
78368;SDS011;71113;43.092;-89.268;2023-12-20T08:45:40;2.28;;;1.13;;
78368;SDS011;71113;43.092;-89.268;2023-12-20T08:48:06;1.98;;;1.05;;
78368;SDS011;71113;43.092;-89.268;2023-12-20T08:50:32;1.40;;;1.10;;
78368;SDS011;71113;43.092;-89.268;2023-12-20T08:52:58;2.35;;;0.98;;
78368;SDS011;71113;43.092;-89.268;2023-12-20T08:55:24;2.22;;;1.20;;
78368;SDS011;71113;43.092;-89.268;2023-12-20T08:57:51;2.03;;;1.00;;
78368;SDS011;71113;43.092;-89.268;2023-12-20T09:00:17;1.83;;;1.10;;
78368;SDS011;71113;43.092;-89.268;2023-12-20T09:02:46;1.55;;;0.98;;
78368;SDS011;71113;43.092;-89.268;2023-12-20T09:05:11;2.40;;;1.08;;
78368;SDS011;71113;43.092;-89.268;2023-12-20T09:07:37;1.60;;;0.82;;
78368;SDS011;71113;43.092;-89.268;2023-12-20T09:10:03;1.48;;;0.70;;
78368;SDS011;71113;43.092;-89.268;2023-12-20T09:12:29;1.50;;;0.98;;
78368;SDS011;71113;43.092;-89.268;2023-12-20T09:14:55;2.25;;;1.10;;
78368;SDS011;71113;43.092;-89.268;2023-12-20T09:17:21;1.40;;;0.80;;
78368;SDS011;71113;43.092;-89.268;2023-12-20T09:19:48;1.50;;;0.80;;
78368;SDS011;71113;43.092;-89.268;2023-12-20T09:22:14;1.65;;;1.10;;
78368;SDS011;71113;43.092;-89.268;2023-12-20T09:24:40;1.48;;;0.90;;
78368;SDS011;71113;43.092;-89.268;2023-12-20T09:27:06;1.95;;;1.05;;
78368;SDS011;71113;43.092;-89.268;2023-12-20T09:29:32;1.52;;;0.90;;
78368;SDS011;71113;43.092;-89.268;2023-12-20T09:31:58;2.00;;;1.10;;
78368;SDS011;71113;43.092;-89.268;2023-12-20T09:34:24;1.40;;;0.90;;
78368;SDS011;71113;43.092;-89.268;2023-12-20T09:36:51;1.15;;;0.80;;
78368;SDS011;71113;43.092;-89.268;2023-12-20T09:39:18;1.17;;;0.90;;
78368;SDS011;71113;43.092;-89.268;2023-12-20T09:41:46;3.00;;;1.10;;
78368;SDS011;71113;43.092;-89.268;2023-12-20T09:44:35;2.35;;;1.65;;
78368;SDS011;71113;43.092;-89.268;2023-12-20T09:47:04;2.05;;;1.00;;
78368;SDS011;71113;43.092;-89.268;2023-12-20T09:49:30;1.95;;;1.10;;
78368;SDS011;71113;43.092;-89.268;2023-12-20T09:51:57;2.35;;;0.98;;
78368;SDS011;71113;43.092;-89.268;2023-12-20T09:54:25;1.95;;;1.10;;
78368;SDS011;71113;43.092;-89.268;2023-12-20T09:56:54;1.30;;;0.75;;
78368;SDS011;71113;43.092;-89.268;2023-12-20T09:59:19;1.77;;;1.02;;
78368;SDS011;71113;43.092;-89.268;2023-12-20T10:01:45;2.13;;;1.10;;
78368;SDS011;71113;43.092;-89.268;2023-12-20T10:04:12;1.85;;;0.95;;
78368;SDS011;71113;43.092;-89.268;2023-12-20T10:06:42;1.30;;;0.70;;
78368;SDS011;71113;43.092;-89.268;2023-12-20T10:09:12;1.45;;;0.82;;
78368;SDS011;71113;43.092;-89.268;2023-12-20T10:11:38;1.38;;;1.05;;
78368;SDS011;71113;43.092;-89.268;2023-12-20T10:14:05;1.60;;;1.40;;
78368;SDS011;71113;43.092;-89.268;2023-12-20T10:16:32;2.17;;;1.00;;
78368;SDS011;71113;43.092;-89.268;2023-12-20T10:18:59;1.80;;;0.82;;
78368;SDS011;71113;43.092;-89.268;2023-12-20T10:21:26;1.10;;;0.68;;
78368;SDS011;71113;43.092;-89.268;2023-12-20T10:23:56;1.77;;;0.93;;
78368;SDS011;71113;43.092;-89.268;2023-12-20T10:26:23;2.05;;;0.88;;
78368;SDS011;71113;43.092;-89.268;2023-12-20T10:28:50;1.42;;;0.90;;
78368;SDS011;71113;43.092;-89.268;2023-12-20T10:31:26;1.65;;;0.80;;
78368;SDS011;71113;43.092;-89.268;2023-12-20T10:33:55;0.80;;;0.60;;
78368;SDS011;71113;43.092;-89.268;2023-12-20T10:36:23;0.93;;;0.75;;
78368;SDS011;71113;43.092;-89.268;2023-12-20T10:38:50;1.63;;;0.90;;
78368;SDS011;71113;43.092;-89.268;2023-12-20T10:41:18;1.65;;;0.63;;
78368;SDS011;71113;43.092;-89.268;2023-12-20T10:43:50;1.52;;;0.70;;
78368;SDS011;71113;43.092;-89.268;2023-12-20T10:46:17;0.68;;;0.65;;
78368;SDS011;71113;43.092;-89.268;2023-12-20T10:48:45;1.40;;;0.85;;
78368;SDS011;71113;43.092;-89.268;2023-12-20T10:51:13;0.95;;;0.68;;
78368;SDS011;71113;43.092;-89.268;2023-12-20T10:53:42;0.85;;;0.63;;
78368;SDS011;71113;43.092;-89.268;2023-12-20T10:56:08;4.47;;;1.08;;
78368;SDS011;71113;43.092;-89.268;2023-12-20T10:58:41;1.27;;;0.75;;
78368;SDS011;71113;43.092;-89.268;2023-12-20T11:01:08;1.13;;;0.70;;
78368;SDS011;71113;43.092;-89.268;2023-12-20T11:03:36;1.42;;;0.77;;
78368;SDS011;71113;43.092;-89.268;2023-12-20T11:09:08;1.67;;;0.80;;
78368;SDS011;71113;43.092;-89.268;2023-12-20T11:11:52;0.95;;;0.60;;
78368;SDS011;71113;43.092;-89.268;2023-12-20T11:17:12;2.33;;;0.60;;
78368;SDS011;71113;43.092;-89.268;2023-12-20T11:22:22;1.25;;;0.80;;
78368;SDS011;71113;43.092;-89.268;2023-12-20T11:24:51;1.40;;;0.68;;
78368;SDS011;71113;43.092;-89.268;2023-12-20T11:27:18;0.95;;;0.65;;
78368;SDS011;71113;43.092;-89.268;2023-12-20T11:29:51;0.88;;;0.60;;
78368;SDS011;71113;43.092;-89.268;2023-12-20T11:37:36;1.15;;;0.80;;
78368;SDS011;71113;43.092;-89.268;2023-12-20T11:40:06;0.98;;;0.70;;
78368;SDS011;71113;43.092;-89.268;2023-12-20T11:42:37;0.57;;;0.50;;
78368;SDS011;71113;43.092;-89.268;2023-12-20T11:45:11;0.93;;;0.57;;
78368;SDS011;71113;43.092;-89.268;2023-12-20T11:47:40;0.75;;;0.52;;
78368;SDS011;71113;43.092;-89.268;2023-12-20T11:50:08;0.90;;;0.68;;
78368;SDS011;71113;43.092;-89.268;2023-12-20T11:52:34;1.02;;;0.70;;
78368;SDS011;71113;43.092;-89.268;2023-12-20T11:55:00;3.42;;;1.75;;
78368;SDS011;71113;43.092;-89.268;2023-12-20T11:57:26;1.00;;;0.65;;
78368;SDS011;71113;43.092;-89.268;2023-12-20T11:59:52;1.58;;;0.68;;
78368;SDS011;71113;43.092;-89.268;2023-12-20T12:02:18;0.68;;;0.65;;
78368;SDS011;71113;43.092;-89.268;2023-12-20T12:04:44;0.68;;;0.40;;
78368;SDS011;71113;43.092;-89.268;2023-12-20T12:07:10;1.23;;;0.80;;
78368;SDS011;71113;43.092;-89.268;2023-12-20T12:09:36;0.90;;;0.80;;
78368;SDS011;71113;43.092;-89.268;2023-12-20T12:12:02;0.82;;;0.50;;
78368;SDS011;71113;43.092;-89.268;2023-12-20T12:14:28;0.98;;;0.40;;
78368;SDS011;71113;43.092;-89.268;2023-12-20T12:16:54;0.75;;;0.40;;
78368;SDS011;71113;43.092;-89.268;2023-12-20T12:19:21;0.80;;;0.50;;
78368;SDS011;71113;43.092;-89.268;2023-12-20T12:21:50;1.27;;;0.90;;
78368;SDS011;71113;43.092;-89.268;2023-12-20T12:24:20;0.65;;;0.55;;
78368;SDS011;71113;43.092;-89.268;2023-12-20T12:26:52;0.80;;;0.70;;
78368;SDS011;71113;43.092;-89.268;2023-12-20T12:29:17;0.77;;;0.52;;
78368;SDS011;71113;43.092;-89.268;2023-12-20T12:31:43;0.55;;;0.40;;
78368;SDS011;71113;43.092;-89.268;2023-12-20T12:34:11;0.40;;;0.40;;
78368;SDS011;71113;43.092;-89.268;2023-12-20T12:36:37;0.40;;;0.40;;
78368;SDS011;71113;43.092;-89.268;2023-12-20T12:39:03;0.40;;;0.40;;
78368;SDS011;71113;43.092;-89.268;2023-12-20T12:41:30;0.90;;;0.60;;
78368;SDS011;71113;43.092;-89.268;2023-12-20T12:43:56;1.23;;;0.68;;
78368;SDS011;71113;43.092;-89.268;2023-12-20T12:46:22;1.35;;;0.65;;
78368;SDS011;71113;43.092;-89.268;2023-12-20T12:48:48;0.90;;;0.70;;
78368;SDS011;71113;43.092;-89.268;2023-12-20T12:51:15;1.10;;;0.65;;
78368;SDS011;71113;43.092;-89.268;2023-12-20T12:53:41;1.05;;;0.60;;
78368;SDS011;71113;43.092;-89.268;2023-12-20T12:56:07;0.90;;;0.80;;
78368;SDS011;71113;43.092;-89.268;2023-12-20T12:58:33;0.68;;;0.50;;
78368;SDS011;71113;43.092;-89.268;2023-12-20T13:00:59;0.60;;;0.45;;
78368;SDS011;71113;43.092;-89.268;2023-12-20T13:03:25;0.90;;;0.70;;
78368;SDS011;71113;43.092;-89.268;2023-12-20T13:05:51;2.33;;;0.70;;
78368;SDS011;71113;43.092;-89.268;2023-12-20T13:08:17;0.90;;;0.60;;
78368;SDS011;71113;43.092;-89.268;2023-12-20T13:10:43;1.30;;;0.70;;
78368;SDS011;71113;43.092;-89.268;2023-12-20T13:13:09;1.08;;;0.73;;
78368;SDS011;71113;43.092;-89.268;2023-12-20T13:15:34;0.68;;;0.52;;
78368;SDS011;71113;43.092;-89.268;2023-12-20T13:18:00;2.33;;;0.73;;
78368;SDS011;71113;43.092;-89.268;2023-12-20T13:20:26;0.68;;;0.47;;
78368;SDS011;71113;43.092;-89.268;2023-12-20T13:22:52;1.98;;;0.80;;
78368;SDS011;71113;43.092;-89.268;2023-12-20T13:25:18;0.63;;;0.47;;
78368;SDS011;71113;43.092;-89.268;2023-12-20T13:27:44;0.75;;;0.50;;
78368;SDS011;71113;43.092;-89.268;2023-12-20T13:30:10;1.17;;;0.68;;
78368;SDS011;71113;43.092;-89.268;2023-12-20T13:32:36;0.85;;;0.63;;
78368;SDS011;71113;43.092;-89.268;2023-12-20T13:35:02;0.47;;;0.38;;
78368;SDS011;71113;43.092;-89.268;2023-12-20T13:37:29;0.60;;;0.50;;
78368;SDS011;71113;43.092;-89.268;2023-12-20T13:39:55;0.68;;;0.55;;
78368;SDS011;71113;43.092;-89.268;2023-12-20T13:42:21;1.20;;;0.50;;
78368;SDS011;71113;43.092;-89.268;2023-12-20T13:44:47;0.85;;;0.63;;
78368;SDS011;71113;43.092;-89.268;2023-12-20T13:47:12;1.30;;;0.70;;
78368;SDS011;71113;43.092;-89.268;2023-12-20T13:49:38;0.82;;;0.55;;
78368;SDS011;71113;43.092;-89.268;2023-12-20T13:52:04;1.45;;;0.80;;
78368;SDS011;71113;43.092;-89.268;2023-12-20T13:54:30;0.85;;;0.57;;
78368;SDS011;71113;43.092;-89.268;2023-12-20T13:56:56;1.40;;;0.90;;
78368;SDS011;71113;43.092;-89.268;2023-12-20T13:59:23;1.33;;;0.90;;
78368;SDS011;71113;43.092;-89.268;2023-12-20T14:01:48;0.93;;;0.70;;
78368;SDS011;71113;43.092;-89.268;2023-12-20T14:04:15;1.48;;;0.75;;
78368;SDS011;71113;43.092;-89.268;2023-12-20T14:06:41;0.73;;;0.63;;
78368;SDS011;71113;43.092;-89.268;2023-12-20T14:09:07;1.15;;;0.60;;
78368;SDS011;71113;43.092;-89.268;2023-12-20T14:11:33;1.08;;;0.73;;
78368;SDS011;71113;43.092;-89.268;2023-12-20T14:13:59;2.17;;;0.82;;
78368;SDS011;71113;43.092;-89.268;2023-12-20T14:16:27;1.52;;;0.90;;
78368;SDS011;71113;43.092;-89.268;2023-12-20T14:18:52;0.75;;;0.60;;
78368;SDS011;71113;43.092;-89.268;2023-12-20T14:21:22;3.05;;;0.70;;
78368;SDS011;71113;43.092;-89.268;2023-12-20T14:23:49;1.70;;;0.80;;
78368;SDS011;71113;43.092;-89.268;2023-12-20T14:26:15;1.38;;;0.80;;